Station: Delamere  

  Atmospheric Gas Attenuation - ITU Rec 676-11   ----------------- dB/100km -----------------
Date Time Temp RH % AH g/m3 Dew Point Wind Direction Speed kph Gust kph Barometer mB Rainfall Since 9am 24GHz 47GHz 76GHz 122GHz 134GHz 241GHz
08/05 13:30 28.7 36 10.17 12.2 19 30 1012.6 0 22.1 24.1 38.4 101.0 99.0 342.3
08/05 13:20 27.4 37 9.74 11.4 24 28 1012.6 0 21.3 23.9 37.5 98.6 95.6 330.5
08/05 13:10 27.2 36 9.37 11.2 13 17 1012.7 0 20.6 23.4 36.3 95.4 91.7 316.6
08/05 13:00 27.4 37 9.74 11.4 20 33 1012.8 0 21.3 23.9 37.5 98.6 95.7 330.6
08/05 12:50 26.9 38 9.73 11.4 22 26 1013 0 21.3 24.0 37.7 99.1 96.2 332.2
08/05 12:40 27.1 37 9.58 11.2 24 33 1013.2 0 21.0 23.7 37.1 97.5 94.2 325.5
08/05 12:30 27 37 9.52 11.1 22 32 1013.4 0 20.9 23.7 37.0 97.1 93.7 323.5
08/05 12:20 26.8 38 9.67 11.3 24 30 1013.4 0 21.2 23.9 37.6 98.7 95.6 330.3
08/05 12:10 26.3 38 9.41 10.9 24 28 1013.6 0 20.7 23.7 36.9 96.9 93.2 321.9
08/05 12:00 26.4 38 9.46 10.9 22 30 1013.8 0 20.8 23.8 37.0 97.3 93.7 323.6
08/05 11:50 26.2 38 9.36 10.8 24 30 1013.9 0 20.6 23.7 36.8 96.6 92.8 320.4
08/05 11:40 25.9 39 9.44 10.9 19 22 1014.1 0 20.8 23.9 37.2 97.7 94.1 324.9
08/05 11:30 26.2 39 9.6 11.2 19 28 1014.3 0 21.1 24.0 37.6 98.9 95.6 330.2
08/05 11:20 25.6 38 9.05 10.2 19 20 1014.4 0 20.0 23.4 36.0 94.4 90.0 310.4
08/05 11:10 26.1 38 9.3 10.7 24 28 1014.6 0 20.5 23.6 36.7 96.2 92.3 318.6
08/05 11:00 36.3 49 20.73 23.9 20 28 1014.6 0 43.4 38.0 73.9 195.6 217.2 755.9
08/05 10:50 24.7 40 9.05 10.2 20 26 1014.7 0 20.0 23.6 36.4 95.5 91.0 313.9
08/05 10:40 24.4 41 9.12 10.3 20 22 1014.8 0 20.2 23.8 36.8 96.5 92.2 318.0
08/05 10:30 24.1 41 8.97 10 24 35 1014.8 0 19.9 23.7 36.4 95.5 90.8 313.0
08/05 10:20 24.2 41 9.02 10.1 20 24 1014.9 0 20.0 23.7 36.5 95.8 91.2 314.7
08/05 10:10 23.7 42 8.98 10 19 26 1015 0 19.9 23.8 36.6 96.1 91.4 315.0
08/05 10:00 23.4 41 8.62 9.4 20 39 1015 0 19.2 23.4 35.5 93.0 87.5 301.4
08/05 09:50 23 42 8.63 9.4 24 28 1015 0 19.2 23.5 35.7 93.6 88.0 303.3
08/05 09:40 22.7 43 8.69 9.5 19 20 1015 0 19.4 23.7 36.0 94.5 89.1 306.9
08/05 09:30 22.4 44 8.74 9.6 22 33 1014.8 0 19.5 23.8 36.3 95.3 90.0 310.1
08/05 09:20 21.9 45 8.68 9.4 17 19 1014.8 0 19.4 23.8 36.3 95.3 89.8 309.5
08/05 09:10 21.3 46 8.57 9.2 24 28 1014.7 0 19.2 23.8 36.2 94.9 89.2 307.2
08/05 09:00 21.2 46 8.52 9.1 24 37 1014.7 0 19.1 23.8 36.1 94.6 88.7 305.5
08/05 08:50 21 46 8.43 8.9 26 32 1014.7 0 18.9 23.7 35.8 93.9 87.9 302.5
08/05 08:40 20.6 47 8.41 8.9 24 33 1014.7 0 18.9 23.8 35.9 94.2 88.1 303.1
08/05 08:30 20.3 48 8.44 8.9 22 37 1014.6 0 18.9 23.9 36.2 94.8 88.7 305.5
08/05 08:20 20.1 49 8.52 9.1 17 24 1014.7 0 19.1 24.1 36.6 95.9 89.9 309.7
08/05 08:10 19.8 50 8.54 9.1 19 20 1014.5 0 19.2 24.2 36.8 96.4 90.5 311.6
08/05 08:00 19.5 51 8.56 9.1 20 35 1014.5 0 19.2 24.3 37.0 97.0 91.1 313.7
08/05 07:50 19.3 51 8.46 8.9 19 20 1014.5 0 19.0 24.2 36.7 96.2 90.1 310.2
08/05 07:40 19.1 52 8.52 9 28 32 1014.4 0 19.2 24.3 37.0 97.0 91.1 313.5
08/05 07:30 18.9 52 8.42 8.8 22 33 1014.3 0 19.0 24.2 36.7 96.3 90.1 309.9
08/05 07:20 18.6 54 8.59 9.1 20 24 1014.3 0 19.3 24.6 37.5 98.3 92.5 318.4
08/05 07:10 18.4 54 8.49 8.9 19 22 1014.3 0 19.1 24.5 37.2 97.6 91.5 314.9
08/05 07:00 18.3 55 8.6 9.1 20 28 1014.2 0 19.4 24.7 37.7 98.8 93.0 320.1
08/05 06:50 18.1 56 8.65 9.2 15 19 1014.1 0 19.5 24.8 37.9 99.5 93.8 323.0
08/05 06:40 18 56 8.6 9.1 17 20 1013.9 0 19.4 24.7 37.8 99.1 93.3 321.2
08/05 06:30 18.2 56 8.7 9.3 17 26 1013.8 0 19.6 24.8 38.1 99.9 94.3 324.7
08/05 06:20 18.1 56 8.65 9.2 19 20 1013.8 0 19.5 24.8 37.9 99.5 93.8 322.9
08/05 06:10 18.1 56 8.65 9.2 15 19 1013.7 0 19.5 24.8 37.9 99.5 93.8 322.9
08/05 06:00 18.3 56 8.76 9.4 17 28 1013.7 0 19.7 24.9 38.2 100.4 94.9 326.9
08/05 05:50 18.3 56 8.76 9.4 13 19 1013.5 0 19.7 24.9 38.2 100.3 94.9 326.8
08/05 05:40 18.4 56 8.81 9.5 17 19 1013.6 0 19.8 24.9 38.4 100.7 95.4 328.7
08/05 05:30 18.5 56 8.86 9.6 19 30 1013.4 0 19.9 25.0 38.5 101.1 95.9 330.4
08/05 05:20 18.6 55 8.75 9.4 17 22 1013.4 0 19.7 24.8 38.1 99.8 94.4 325.2
08/05 05:10 18.7 55 8.8 9.5 13 17 1013.5 0 19.8 24.8 38.2 100.2 94.9 327.0
08/05 05:00 18.7 55 8.8 9.5 19 28 1013.4 0 19.8 24.8 38.2 100.2 94.9 326.9
08/05 04:50 18.8 55 8.86 9.6 17 22 1013.4 0 19.9 24.9 38.4 100.7 95.5 329.1
08/05 04:40 19 55 8.96 9.8 19 24 1013.4 0 20.1 25.0 38.7 101.5 96.5 332.7
08/05 04:30 19.2 54 8.9 9.7 20 33 1013.4 0 20.0 24.8 38.3 100.6 95.6 329.2
08/05 04:20 19.1 55 9.02 9.9 15 20 1013.3 0 20.2 25.1 38.8 101.9 97.2 334.8
08/05 04:10 19.4 54 9.01 9.9 22 26 1013.3 0 20.2 25.0 38.6 101.5 96.7 333.1
08/05 04:00 19.4 54 9.01 9.9 19 30 1013.4 0 20.2 25.0 38.7 101.5 96.7 333.2
08/05 03:50 19.5 54 9.06 10 17 19 1013.5 0 20.3 25.0 38.8 101.8 97.2 335.0
08/05 03:40 19.8 53 9.05 10 19 20 1013.5 0 20.3 24.9 38.6 101.4 96.7 333.3
08/05 03:30 19.8 53 9.05 10 20 35 1013.5 0 20.3 24.9 38.6 101.4 96.7 333.3
08/05 03:20 20 52 8.99 9.9 20 24 1013.6 0 20.1 24.8 38.3 100.5 95.7 329.9
08/05 03:10 20.1 52 9.04 9.9 17 22 1013.7 0 20.2 24.8 38.4 100.9 96.2 331.6
08/05 03:00 20.2 52 9.09 10 22 35 1013.7 0 20.3 24.9 38.6 101.3 96.7 333.4
08/05 02:50 20.2 53 9.27 10.3 19 24 1013.9 0 20.7 25.1 39.3 103.1 99.0 341.2
08/05 02:40 20 54 9.33 10.4 17 20 1014 0 20.8 25.3 39.6 104.0 100.0 344.7
08/05 02:30 20 55 9.5 10.7 17 24 1014 0 21.2 25.6 40.2 105.7 102.1 352.2
08/05 02:20 20 55 9.5 10.7 19 22 1014 0 21.2 25.6 40.2 105.7 102.1 352.2
08/05 02:10 20.1 54 9.39 10.5 15 17 1014.1 0 21.0 25.4 39.8 104.5 100.6 346.9
08/05 02:00 20.1 54 9.39 10.5 15 24 1014.1 0 21.0 25.4 39.8 104.5 100.6 346.9
08/05 01:50 20.2 54 9.44 10.6 17 22 1014.2 0 21.1 25.4 39.9 104.9 101.1 348.7
08/05 01:40 20.3 53 9.32 10.4 17 20 1014.3 0 20.8 25.2 39.4 103.5 99.5 343.1
08/05 01:30 20.4 53 9.38 10.5 17 22 1014.4 0 20.9 25.3 39.6 104.0 100.1 345.3
08/05 01:20 20.6 53 9.48 10.7 19 24 1014.5 0 21.1 25.4 39.9 104.8 101.1 348.8
08/05 01:10 20.5 52 9.25 10.3 17 17 1014.5 0 20.6 25.1 39.1 102.6 98.4 339.3
08/05 01:00 20.6 52 9.31 10.4 17 24 1014.6 0 20.8 25.1 39.3 103.1 99.0 341.4
08/05 00:50 20.8 51 9.23 10.3 17 17 1014.7 0 20.6 25.0 38.9 102.0 97.8 337.2
08/05 00:40 20.8 51 9.23 10.3 15 19 1014.8 0 20.6 25.0 38.9 102.0 97.8 337.2
08/05 00:30 20.9 51 9.29 10.4 19 26 1014.7 0 20.7 25.0 39.0 102.5 98.4 339.3
08/05 00:20 21 51 9.34 10.5 15 19 1014.9 0 20.8 25.1 39.2 102.9 98.9 341.1
08/05 00:10 21.1 51 9.4 10.6 20 26 1015 0 20.9 25.1 39.4 103.4 99.5 343.3
08/05 00:00 21 51 9.34 10.5 17 26 1015 0 20.8 25.1 39.2 102.9 98.9 341.1
07/05 23:50 20.9 52 9.47 10.7 17 20 1015 0 21.1 25.3 39.7 104.3 100.6 347.2
07/05 23:40 20.9 52 9.47 10.7 17 20 1015 0 21.1 25.3 39.7 104.3 100.6 347.2
07/05 23:30 20.7 52 9.36 10.5 15 20 1015.2 0 20.9 25.2 39.4 103.5 99.5 343.4
07/05 23:20 21 51 9.34 10.5 15 19 1015.1 0 20.8 25.1 39.2 102.9 98.9 341.2
07/05 23:10 21 51 9.34 10.5 15 17 1015.2 0 20.8 25.1 39.2 102.9 98.9 341.2
07/05 23:00 21.2 51 9.45 10.7 17 24 1015.3 0 21.0 25.2 39.5 103.8 100.0 345.1
07/05 22:50 21.1 51 9.4 10.6 13 13 1015.1 0 20.9 25.1 39.4 103.4 99.5 343.3
07/05 22:40 21.4 50 9.37 10.6 17 24 1015.1 0 20.8 25.0 39.1 102.7 98.8 340.8
07/05 22:30 21.7 49 9.35 10.5 19 28 1015.2 0 20.8 24.9 38.9 102.1 98.2 338.7
07/05 22:20 21.7 50 9.54 10.8 17 20 1015.1 0 21.2 25.2 39.6 104.0 100.5 346.8
07/05 22:10 21.7 50 9.54 10.8 19 24 1015.2 0 21.2 25.2 39.6 104.0 100.5 346.8
07/05 22:00 21.9 49 9.45 10.7 17 24 1015.3 0 21.0 25.0 39.2 102.9 99.1 342.1
07/05 21:50 22 49 9.51 10.8 17 20 1015.2 0 21.1 25.1 39.3 103.3 99.7 344.2
07/05 21:40 22.2 49 9.62 11 17 20 1015.2 0 21.3 25.2 39.7 104.2 100.8 348.1
07/05 21:30 22.1 49 9.56 10.9 15 19 1015.2 0 21.2 25.1 39.5 103.7 100.2 345.9
07/05 21:20 22.4 48 9.53 10.9 19 20 1015.1 0 21.1 25.0 39.2 103.0 99.5 343.3
07/05 21:10 22.4 48 9.53 10.9 13 15 1015 0 21.1 25.0 39.2 103.0 99.5 343.3
07/05 21:00 22.5 49 9.79 11.3 15 20 1014.9 0 21.7 25.3 40.1 105.4 102.5 353.9

Last Refresh: 08-May-2026 13:41:09

Bureau of Meteorology